Hallock, MN (56728)

6:40 PM CDT en Julio 31, 2014 (GMT -0500)
Hallock Municipal (KHCO) Alt 820 ft | 48.75 °N, 96.94 °W | Change Station

Current weather conditions updated 7 minutes ago

Clear
Despejado
81 ° F
Sensación térmica 81 ° F
N
8
Viento Variable Viento desde NNO

Mañana se prevé un día Más cálido que hoy. Cielo parcialmente cubierto, probabilidad de tormenta. tomorrow night.

Hoy
Alta -- | Baja -- ° F
--% Posibilidad de precipitaciones
Ayer
Alta -- | Baja -- ° F
Precip. -- pul
6:00 AM 9:07 PM
Creciente, 21% visible
Presión 29.99 pul
Visibilidad 10.0 Millas
Nubes Despejado
Índice de calor 81 ° F
Punto de rocío 59 ° F
Humedad 48%
Precipitaciones 0.00 pul
Espesor de la nieve No disponible.
UV 2 de una escala de 12
Polen 8.10 de una escala de 12
Calidad del aire No disponible.
Flu Activity No disponible.
METAR KHCO 312333Z AUTO 34007KT 10SM CLR 27/15 A2999 RMK AO2

More Conditions Fewer Conditions

Presión 29.99 pul
Visibilidad 10.0 Millas
Nubes Despejado
Índice de calor 81 ° F
Punto de rocío 59 ° F
Humedad 48%
Precipitaciones 0.00 pul
Espesor de la nieve No disponible.
UV 2 de una escala de 12
Polen 8.10 de una escala de 12
Calidad del aire No disponible.
Flu Activity No disponible.
METAR KHCO 312333Z AUTO 34007KT 10SM CLR 27/15 A2999 RMK AO2

More Conditions Fewer Conditions

10-Day Weather Forecast

Almanac

Astronomía

Jul. 31, 2014 Salida Puesta
Hora real 6:00 AM CDT 9:07 PM CDT
Crepúsculo civil 5:22 AM CDT 9:44 PM CDT
Crepúsculo náutico 4:33 AM CDT 10:33 PM CDT
Crepúsculo astronómico 3:32 AM CDT 11:33 PM CDT
Luna 10:55 AM CDT 10:51 PM CDT
Horas de luz 16h 21m
Horas de luz
15h 07m
Tomorrow will be 2m 47s shorter.
Creciente, 21% of the Moon is Illuminated
Hoy
Creciente
Ago 3
Cuarto creciente
Ago 10
Luna llena
Ago 17
Cuarto menguante
Ago 25
Nueva

Extremos de hoy

Máximos del estado Bajos del estado

Community

WunderPhotos

Upload Photos

1,739,460 ¡fotos cargadas!

Nearby

Grosos de nieve

Estación Profundido Altura
No tenemos constancia de nieve nueva.

Actividad de terremotos

Ciudad Distance Mag. Tiempo y dato
No hay informes recientes de la actividad sísmica.
Magnitud mínima muestra es 2,5.

Temperaturas de aguas costeras

Lugar Temperatura
Sin partes meteorológicos de las estaciones

Estaciones meteorológicas cercanas

Ubicación de la estación Temp. Índice de calor Punto de rocío Humedad Viento Precip. Alt Actualizado Tipo
RAWS KITTSON MN, Karlstad, MN 80 ° F 81 ° F 59 ° F 49% NNO  a  7 mph 0.00 pul / hr 1060 ft 5:32 PM CDT MADIS

Show More Stations Show Fewer Stations